Time;durP1;ratioP1;P1;durP2;ratioP2;P2;SDS_P1;SDS_P2;PMS_P1;PMS_P2;Temp;Humidity;BMP_temperature;BMP_pressure;BME280_temperature;BME280_humidity;BME280_pressure;Samples;Min_cycle;Max_cycle;Signal;HPM_P1;HPM_P2
2021/03/04 00:00:07;;;;;;;40.92;23.10;;;;;;;8.75;51.21;100603.28;4861535;28;101425;-73
2021/03/04 00:02:36;;;;;;;47.17;24.85;;;;;;;8.74;51.18;100598.97;4874106;28;96890;-73
2021/03/04 00:05:03;;;;;;;46.38;24.38;;;;;;;8.75;51.10;100598.91;4859545;28;97076;-73
2021/03/04 00:07:29;;;;;;;44.20;24.15;;;;;;;8.77;51.18;100591.88;4858639;28;101206;-73
2021/03/04 00:09:54;;;;;;;40.78;22.60;;;;;;;8.83;50.88;100588.28;4843926;28;101397;-73
2021/03/04 00:12:20;;;;;;;40.05;24.20;;;;;;;8.78;51.12;100580.50;4849849;29;97355;-73
2021/03/04 00:14:46;;;;;;;35.75;21.83;;;;;;;8.80;51.10;100581.34;4840550;28;97395;-74
2021/03/04 00:17:11;;;;;;;42.28;22.08;;;;;;;8.82;51.15;100581.34;4858050;28;98600;-73
2021/03/04 00:19:37;;;;;;;40.60;22.45;;;;;;;8.83;50.91;100576.03;4859345;28;97845;-73
2021/03/04 00:22:03;;;;;;;41.78;23.70;;;;;;;8.74;51.07;100575.41;4859569;28;97179;-74
2021/03/04 00:24:29;;;;;;;42.63;22.80;;;;;;;8.80;50.93;100570.88;4874768;28;97188;-73
2021/03/04 00:26:54;;;;;;;42.88;23.20;;;;;;;8.76;50.66;100556.16;4858610;28;101847;-73
2021/03/04 00:29:20;;;;;;;37.67;22.30;;;;;;;8.79;50.79;100560.47;4858189;28;99522;-73
2021/03/04 00:31:46;;;;;;;39.70;21.98;;;;;;;8.81;50.91;100556.03;4859391;28;96663;-73
2021/03/04 00:34:12;;;;;;;38.72;22.30;;;;;;;8.83;50.65;100559.47;4858763;28;96850;-74
2021/03/04 00:36:37;;;;;;;38.67;21.98;;;;;;;8.80;50.95;100551.69;4858840;28;97580;-74
2021/03/04 00:39:07;;;;;;;40.45;21.60;;;;;;;8.78;51.01;100548.25;4858611;28;101020;-75
2021/03/04 00:41:34;;;;;;;40.55;21.95;;;;;;;8.77;50.92;100547.41;4857701;28;97098;-75
2021/03/04 00:43:59;;;;;;;42.80;22.60;;;;;;;8.69;51.48;100538.84;4875171;28;96752;-74
2021/03/04 00:46:25;;;;;;;40.78;21.95;;;;;;;8.67;51.14;100532.81;4857553;28;101277;-74
2021/03/04 00:48:51;;;;;;;36.33;21.08;;;;;;;8.71;51.22;100530.97;4859135;28;98188;-73
2021/03/04 00:51:16;;;;;;;41.65;21.83;;;;;;;8.71;50.99;100528.38;4853133;29;97531;-73
2021/03/04 00:53:42;;;;;;;43.40;21.23;;;;;;;8.68;51.09;100523.19;4874119;28;97538;-74
2021/03/04 00:56:07;;;;;;;40.22;21.67;;;;;;;8.70;51.28;100527.50;4876558;28;98618;-78
2021/03/04 00:58:33;;;;;;;41.53;20.08;;;;;;;8.66;51.58;100517.97;4877318;28;101141;-75
2021/03/04 01:00:58;;;;;;;39.85;21.85;;;;;;;8.67;51.03;100524.97;4877924;28;96975;-73
2021/03/04 01:03:24;;;;;;;37.65;20.35;;;;;;;8.61;51.46;100512.88;4876966;28;97072;-74
2021/03/04 01:05:50;;;;;;;44.38;21.30;;;;;;;8.56;51.18;100512.09;4876938;28;97934;-73
2021/03/04 01:08:15;;;;;;;38.78;19.95;;;;;;;8.58;51.29;100506.81;4861235;28;97555;-73
2021/03/04 01:10:41;;;;;;;39.85;20.92;;;;;;;8.57;51.24;100511.19;4858697;28;96887;-74
2021/03/04 01:13:08;;;;;;;37.97;20.60;;;;;;;8.54;51.19;100505.19;4889870;28;97474;-73
2021/03/04 01:15:34;;;;;;;36.30;20.60;;;;;;;8.52;51.71;100512.19;4875999;28;101414;-74
2021/03/04 01:18:02;;;;;;;37.60;21.02;;;;;;;8.48;51.50;100510.56;4875148;28;98063;-73
2021/03/04 01:20:28;;;;;;;38.58;20.67;;;;;;;8.42;51.71;100500.25;4864221;28;97205;-73
2021/03/04 01:22:54;;;;;;;39.97;22.10;;;;;;;8.36;51.52;100496.81;4843320;28;96831;-73
2021/03/04 01:25:19;;;;;;;39.05;21.95;;;;;;;8.36;51.78;100491.59;4857458;28;98087;-73
2021/03/04 01:27:47;;;;;;;37.72;20.95;;;;;;;8.27;51.62;100489.19;4858162;28;101116;-74
2021/03/04 01:30:13;;;;;;;39.70;20.85;;;;;;;8.20;51.87;100484.09;4857286;28;97255;-77
2021/03/04 01:32:39;;;;;;;39.75;20.00;;;;;;;8.12;51.88;100486.91;4861193;28;96752;-74
2021/03/04 01:35:07;;;;;;;39.42;19.90;;;;;;;8.11;52.12;100472.94;4877012;28;98187;-74
2021/03/04 01:37:33;;;;;;;37.13;19.00;;;;;;;8.15;51.66;100479.00;4858101;28;101228;-73
2021/03/04 01:39:59;;;;;;;33.03;18.73;;;;;;;8.15;51.94;100469.38;4842947;28;97192;-73
2021/03/04 01:42:24;;;;;;;30.95;17.50;;;;;;;8.16;52.11;100473.72;4889654;28;97250;-73
2021/03/04 01:44:50;;;;;;;35.38;19.05;;;;;;;8.08;52.17;100472.16;4876619;28;101223;-74
2021/03/04 01:47:17;;;;;;;34.30;18.52;;;;;;;8.12;52.00;100468.59;4860918;28;100761;-74
2021/03/04 01:49:42;;;;;;;35.00;17.35;;;;;;;8.11;52.05;100467.72;4858946;28;97451;-74
2021/03/04 01:52:08;;;;;;;36.88;17.63;;;;;;;8.09;51.93;100466.06;4875557;28;97320;-73
2021/03/04 01:54:35;;;;;;;35.50;18.20;;;;;;;8.09;52.11;100468.66;4860171;28;101608;-74
2021/03/04 01:57:01;;;;;;;37.75;18.27;;;;;;;8.05;52.00;100472.22;4860991;28;101121;-73
2021/03/04 01:59:27;;;;;;;32.17;16.90;;;;;;;8.00;52.05;100464.50;4860684;28;97371;-74
2021/03/04 02:01:52;;;;;;;31.95;17.35;;;;;;;8.04;52.07;100457.44;4861574;28;97404;-73
2021/03/04 02:04:18;;;;;;;30.58;16.25;;;;;;;8.00;52.21;100458.38;4860397;28;101065;-74
2021/03/04 02:06:53;;;;;;;27.90;15.65;;;;;;;8.00;52.31;100464.50;4855368;28;101455;-73
2021/03/04 02:09:20;;;;;;;32.63;16.33;;;;;;;8.01;52.33;100465.34;4870824;28;97660;-74
2021/03/04 02:12:15;;;;;;;31.45;16.60;;;;;;;7.95;52.31;100455.88;4842643;29;97010;-73
2021/03/04 02:14:50;;;;;;;29.10;16.63;;;;;;;7.93;52.53;100449.81;4872021;28;100966;-74
2021/03/04 02:17:19;;;;;;;30.30;16.20;;;;;;;7.99;52.29;100457.53;4869708;28;97438;-74
2021/03/04 02:19:53;;;;;;;27.17;16.15;;;;;;;7.99;52.59;100454.06;4845121;28;96957;-74
2021/03/04 02:22:25;;;;;;;27.20;15.37;;;;;;;8.01;52.44;100442.69;4844419;28;96781;-74
2021/03/04 02:24:59;;;;;;;30.42;15.32;;;;;;;8.04;52.75;100450.47;4876108;28;100682;-73
2021/03/04 02:27:27;;;;;;;32.75;15.85;;;;;;;8.05;52.93;100457.41;4875757;28;98530;-74
2021/03/04 02:30:06;;;;;;;29.17;16.38;;;;;;;8.07;52.61;100453.00;4861317;28;97429;-73
2021/03/04 02:32:32;;;;;;;32.53;15.88;;;;;;;8.08;52.64;100446.00;4860246;28;97284;-73
2021/03/04 02:35:12;;;;;;;32.08;17.23;;;;;;;8.03;53.05;100447.84;4860401;28;101323;-73
2021/03/04 02:37:42;;;;;;;33.58;15.95;;;;;;;8.04;52.99;100444.38;4860623;28;101369;-73
2021/03/04 02:40:09;;;;;;;31.38;16.38;;;;;;;7.98;52.99;100436.66;4860972;28;97300;-73
2021/03/04 02:42:35;;;;;;;32.40;16.73;;;;;;;7.96;53.43;100433.22;4844466;28;96946;-73
2021/03/04 02:45:01;;;;;;;31.77;16.02;;;;;;;7.94;53.56;100431.50;4859938;28;101522;-73
2021/03/04 02:47:27;;;;;;;31.40;16.40;;;;;;;7.91;53.73;100426.34;4859694;28;101410;-73
2021/03/04 02:49:53;;;;;;;29.73;15.57;;;;;;;7.90;53.89;100426.34;4861175;28;96910;-73
2021/03/04 02:52:19;;;;;;;29.98;16.42;;;;;;;7.86;53.85;100422.97;4859979;28;96825;-73
2021/03/04 02:54:45;;;;;;;31.20;16.20;;;;;;;7.87;53.84;100415.97;4876121;28;97945;-76
2021/03/04 02:57:12;;;;;;;32.13;17.60;;;;;;;7.86;54.15;100417.72;4876339;28;97544;-77
2021/03/04 02:59:39;;;;;;;33.05;17.02;;;;;;;7.85;54.76;100402.97;4860326;28;97223;-75
2021/03/04 03:02:06;;;;;;;29.52;16.30;;;;;;;7.80;54.23;100409.16;4861035;28;96961;-76
2021/03/04 03:04:37;;;;;;;34.67;15.68;;;;;;;7.81;54.45;100397.81;4859005;28;101223;-75
2021/03/04 03:07:04;;;;;;;26.45;15.48;;;;;;;7.81;54.64;100405.66;4860458;28;100988;-75
2021/03/04 03:09:30;;;;;;;28.87;16.63;;;;;;;7.83;54.49;100409.09;4859463;28;97141;-75
2021/03/04 03:11:55;;;;;;;31.07;16.23;;;;;;;7.79;54.90;100397.81;4860265;28;97236;-76
2021/03/04 03:14:21;;;;;;;33.63;16.25;;;;;;;7.82;54.64;100407.38;4871324;28;101199;-75
2021/03/04 03:16:47;;;;;;;28.13;14.63;;;;;;;7.82;54.85;100403.00;4872779;28;101260;-76
2021/03/04 03:19:13;;;;;;;29.30;15.52;;;;;;;7.82;54.53;100410.84;4844539;28;97346;-78
2021/03/04 03:21:39;;;;;;;32.92;16.83;;;;;;;7.79;54.84;100390.00;4875801;28;97485;-73
2021/03/04 03:24:05;;;;;;;30.38;16.42;;;;;;;7.84;54.82;100395.97;4860028;28;100937;-73
2021/03/04 03:26:31;;;;;;;28.05;15.63;;;;;;;7.76;54.84;100397.91;4843541;28;101696;-73
2021/03/04 03:28:57;;;;;;;31.83;15.47;;;;;;;7.82;54.98;100395.16;4844672;28;96741;-73
2021/03/04 03:31:23;;;;;;;25.37;15.13;;;;;;;7.86;55.17;100395.97;4843836;28;97043;-76
2021/03/04 03:33:49;;;;;;;28.90;15.27;;;;;;;7.80;54.93;100396.97;4859539;28;101609;-75
2021/03/04 03:36:15;;;;;;;32.10;15.75;;;;;;;7.75;55.32;100392.72;4875003;28;97333;-78
2021/03/04 03:38:41;;;;;;;30.55;16.58;;;;;;;7.74;55.66;100380.53;4859945;28;96795;-75
2021/03/04 03:41:07;;;;;;;29.48;16.48;;;;;;;7.79;55.48;100386.53;4860124;28;96805;-76
2021/03/04 03:43:33;;;;;;;29.55;16.60;;;;;;;7.71;55.71;100379.72;4843447;28;101100;-74
2021/03/04 03:46:00;;;;;;;28.02;15.82;;;;;;;7.62;56.13;100381.66;4859564;28;97391;-73
2021/03/04 03:48:26;;;;;;;27.17;17.05;;;;;;;7.64;56.03;100383.34;4843418;28;98582;-73
2021/03/04 03:50:53;;;;;;;31.98;17.05;;;;;;;7.62;56.19;100377.31;4860256;28;97099;-74
2021/03/04 03:53:19;;;;;;;33.90;16.77;;;;;;;7.63;55.97;100380.78;4874706;28;98206;-76
2021/03/04 03:55:47;;;;;;;31.73;18.15;;;;;;;7.71;55.84;100384.94;4859097;28;101036;-76
2021/03/04 03:58:13;;;;;;;32.63;16.55;;;;;;;7.72;56.13;100377.97;4859279;28;97285;-75
2021/03/04 04:00:39;;;;;;;31.30;18.30;;;;;;;7.63;56.13;100394.69;4875068;28;96880;-75
2021/03/04 04:03:05;;;;;;;29.02;16.77;;;;;;;7.54;56.72;100392.28;4859041;28;100867;-75
2021/03/04 04:05:31;;;;;;;27.50;16.50;;;;;;;7.52;56.68;100387.97;4842702;28;101496;-75
2021/03/04 04:07:59;;;;;;;30.45;17.58;;;;;;;7.43;56.89;100384.66;4859680;28;96794;-75
2021/03/04 04:10:29;;;;;;;30.65;17.33;;;;;;;7.56;57.10;100381.78;4857774;28;97032;-76
2021/03/04 04:12:55;;;;;;;28.23;17.38;;;;;;;7.59;56.73;100384.31;4841622;28;101477;-76
2021/03/04 04:15:21;;;;;;;35.05;17.80;;;;;;;7.54;57.02;100383.59;4857725;28;100984;-75
2021/03/04 04:17:48;;;;;;;27.67;16.83;;;;;;;7.51;57.17;100394.94;4857316;28;97113;-75
2021/03/04 04:20:14;;;;;;;35.05;17.02;;;;;;;7.48;57.26;100392.41;4859723;28;96906;-75
2021/03/04 04:22:41;;;;;;;32.05;18.55;;;;;;;7.45;57.35;100379.41;4857938;28;100661;-75
2021/03/04 04:25:07;;;;;;;32.57;18.23;;;;;;;7.34;57.50;100387.44;4858829;28;101028;-75
2021/03/04 04:27:33;;;;;;;36.00;20.65;;;;;;;7.35;57.98;100385.69;4842860;28;97125;-76
2021/03/04 04:29:58;;;;;;;36.38;18.58;;;;;;;7.27;58.35;100396.28;4859514;28;97103;-75
2021/03/04 04:32:24;;;;;;;38.05;21.08;;;;;;;7.28;58.55;100387.56;4859000;28;101312;-76
2021/03/04 04:34:50;;;;;;;35.15;19.88;;;;;;;7.22;58.52;100387.69;4877731;28;101322;-75
2021/03/04 04:37:15;;;;;;;36.70;21.00;;;;;;;7.09;59.36;100392.25;4878345;28;96848;-79
2021/03/04 04:39:41;;;;;;;37.97;20.42;;;;;;;7.05;59.71;100388.00;4877903;28;98067;-75
2021/03/04 04:42:07;;;;;;;38.83;22.65;;;;;;;7.13;59.53;100383.50;4877703;28;101388;-76
2021/03/04 04:44:32;;;;;;;42.17;22.47;;;;;;;7.14;59.55;100374.78;4893075;28;97883;-76
2021/03/04 04:46:58;;;;;;;37.73;22.70;;;;;;;7.09;60.23;100370.53;4877479;28;96741;-76
2021/03/04 04:49:24;;;;;;;40.57;22.57;;;;;;;7.12;60.20;100360.03;4877568;28;96775;-76
2021/03/04 04:51:49;;;;;;;39.35;23.27;;;;;;;7.16;60.11;100359.09;4877303;28;97540;-75
2021/03/04 04:54:15;;;;;;;45.92;24.58;;;;;;;7.15;60.74;100366.03;4877678;28;101159;-75
2021/03/04 04:56:41;;;;;;;41.60;24.83;;;;;;;7.13;61.05;100357.41;4876877;28;96685;-76
2021/03/04 04:59:06;;;;;;;42.57;25.40;;;;;;;7.17;60.87;100358.19;4862354;28;96851;-74
2021/03/04 05:01:32;;;;;;;44.05;25.25;;;;;;;7.18;61.04;100349.47;4864190;28;97369;-74
2021/03/04 05:03:57;;;;;;;44.30;26.13;;;;;;;7.17;61.24;100351.22;4859187;28;101562;-73
2021/03/04 05:06:23;;;;;;;48.80;27.45;;;;;;;7.22;61.27;100344.16;4857641;28;97062;-73
2021/03/04 05:08:48;;;;;;;47.40;27.35;;;;;;;7.14;61.41;100346.06;4859145;28;96819;-74
2021/03/04 05:11:17;;;;;;;49.23;26.60;;;;;;;7.20;61.14;100337.25;4842370;28;101331;-76
2021/03/04 05:13:44;;;;;;;50.88;28.45;;;;;;;7.19;61.37;100330.31;4841905;28;101761;-73
2021/03/04 05:16:11;;;;;;;48.92;27.75;;;;;;;7.11;61.98;100340.03;4875438;28;97223;-75
2021/03/04 05:18:37;;;;;;;50.83;28.92;;;;;;;7.13;61.73;100330.44;4894134;28;97201;-74
2021/03/04 05:21:02;;;;;;;49.13;28.60;;;;;;;7.15;61.99;100339.06;4893401;28;97466;-73
2021/03/04 05:23:28;;;;;;;52.03;30.57;;;;;;;7.10;62.18;100328.75;4876443;28;101376;-74
2021/03/04 05:25:53;;;;;;;51.17;29.65;;;;;;;7.10;62.63;100333.97;4893247;28;97263;-76
2021/03/04 05:28:19;;;;;;;53.10;30.70;;;;;;;7.14;61.97;100329.53;4877184;28;96861;-80
2021/03/04 05:30:45;;;;;;;50.10;29.47;;;;;;;7.17;62.30;100329.47;4876954;28;101604;-74
2021/03/04 05:33:10;;;;;;;51.70;30.23;;;;;;;7.13;62.62;100327.81;4877090;28;100887;-75
2021/03/04 05:35:36;;;;;;;53.17;31.53;;;;;;;7.11;62.90;100329.59;4860021;28;96660;-74
2021/03/04 05:38:01;;;;;;;52.20;32.30;;;;;;;7.11;62.82;100320.00;4870472;28;96897;-73
2021/03/04 05:40:27;;;;;;;59.70;32.87;;;;;;;7.18;62.30;100323.34;4872569;28;101423;-74
2021/03/04 05:42:53;;;;;;;52.57;31.40;;;;;;;7.21;62.47;100325.91;4857493;28;101049;-74
2021/03/04 05:45:19;;;;;;;56.87;32.20;;;;;;;7.24;62.34;100321.50;4857874;28;96968;-77
2021/03/04 05:47:47;;;;;;;55.17;31.85;;;;;;;7.23;62.63;100316.28;4862156;28;96857;-74
2021/03/04 05:50:14;;;;;;;59.43;33.17;;;;;;;7.19;62.59;100315.50;4855489;28;101752;-74
2021/03/04 05:52:44;;;;;;;54.57;31.80;;;;;;;7.26;62.44;100306.63;4892594;28;98257;-74
2021/03/04 05:55:11;;;;;;;60.90;32.50;;;;;;;7.34;62.28;100297.81;4861026;28;96913;-76
2021/03/04 05:57:36;;;;;;;55.10;32.87;;;;;;;7.38;62.21;100307.28;4876357;28;96917;-76
2021/03/04 06:00:03;;;;;;;56.72;31.77;;;;;;;7.40;62.25;100308.13;4860708;28;101332;-76
2021/03/04 06:02:31;;;;;;;65.80;33.10;;;;;;;7.47;62.10;100304.47;4892230;28;97887;-76
2021/03/04 06:04:57;;;;;;;56.85;35.03;;;;;;;7.48;61.97;100311.44;4876596;28;97200;-75
2021/03/04 06:07:22;;;;;;;52.83;32.63;;;;;;;7.59;61.76;100311.19;4884453;28;96921;-76
2021/03/04 06:09:48;;;;;;;58.67;33.70;;;;;;;7.55;61.69;100313.00;4837919;28;100966;-76
2021/03/04 06:12:13;;;;;;;55.90;33.60;;;;;;;7.58;61.81;100307.72;4850079;28;100891;-75
2021/03/04 06:14:39;;;;;;;67.45;35.38;;;;;;;7.61;61.40;100299.81;4859597;28;98251;-76
2021/03/04 06:17:15;;;;;;;59.97;34.63;;;;;;;7.75;61.04;100315.19;4869737;28;97049;-76
2021/03/04 06:19:50;;;;;;;57.83;34.10;;;;;;;7.76;61.31;100309.06;4857216;28;100195;-75
2021/03/04 06:22:22;;;;;;;60.17;34.78;;;;;;;7.92;60.93;100313.03;4858102;28;97926;-75
2021/03/04 06:24:58;;;;;;;60.20;33.13;;;;;;;7.97;60.88;100307.72;4859983;28;98117;-75
2021/03/04 06:27:33;;;;;;;60.40;33.92;;;;;;;8.15;60.50;100309.03;4871956;28;96977;-76
2021/03/04 06:30:01;;;;;;;58.33;35.03;;;;;;;8.19;60.13;100307.19;4846287;28;98261;-73
2021/03/04 06:32:27;;;;;;;64.63;34.77;;;;;;;8.28;60.46;100305.19;4856989;28;97922;-74
2021/03/04 06:35:05;;;;;;;60.20;35.08;;;;;;;8.50;59.67;100296.88;4853603;28;98164;-73
2021/03/04 06:37:33;;;;;;;59.28;34.05;;;;;;;8.56;59.33;100297.56;4860699;28;97596;-74
2021/03/04 06:39:59;;;;;;;63.88;35.95;;;;;;;8.61;59.22;100297.44;4875223;28;101176;-74
2021/03/04 06:42:25;;;;;;;59.42;35.97;;;;;;;8.77;58.57;100303.97;4866677;28;98037;-75
2021/03/04 06:44:54;;;;;;;60.65;35.63;;;;;;;8.90;58.55;100301.00;4859224;28;97143;-72
2021/03/04 06:47:24;;;;;;;60.95;35.55;;;;;;;9.03;58.31;100299.78;4855053;28;97227;-77
2021/03/04 06:49:50;;;;;;;61.42;37.63;;;;;;;9.08;57.97;100292.66;4895523;28;97400;-73
2021/03/04 06:52:27;;;;;;;61.65;36.35;;;;;;;9.12;57.98;100293.44;4867403;28;101225;-74
2021/03/04 06:54:53;;;;;;;60.53;35.47;;;;;;;9.20;57.54;100288.84;4857281;28;97336;-75
2021/03/04 06:57:21;;;;;;;54.85;35.13;;;;;;;9.29;57.32;100294.66;4851292;28;97449;-74
2021/03/04 06:59:47;;;;;;;53.95;34.15;;;;;;;9.44;56.89;100282.00;4882021;28;101851;-75
2021/03/04 07:02:24;;;;;;;58.83;34.80;;;;;;;9.52;56.38;100288.75;4867189;28;97966;-74
2021/03/04 07:04:55;;;;;;;58.90;34.60;;;;;;;9.60;56.97;100285.00;4882747;28;97052;-75
2021/03/04 07:07:24;;;;;;;59.03;35.25;;;;;;;9.68;56.24;100286.50;4849732;28;97117;-75
2021/03/04 07:09:54;;;;;;;55.90;35.50;;;;;;;9.89;55.97;100291.97;4854143;28;99906;-82
2021/03/04 07:12:21;;;;;;;53.60;34.20;;;;;;;10.05;55.54;100287.13;4857745;28;97537;-79
2021/03/04 07:14:48;;;;;;;57.53;35.55;;;;;;;10.09;56.00;100283.47;4866680;28;97260;-80
2021/03/04 07:17:15;;;;;;;61.30;34.97;;;;;;;10.34;54.93;100292.28;4852489;28;97648;-80
2021/03/04 07:19:50;;;;;;;57.33;34.25;;;;;;;10.47;54.63;100289.25;4836736;28;101004;-80
2021/03/04 07:22:19;;;;;;;53.08;34.70;;;;;;;10.49;54.74;100295.31;4850715;28;100979;-80
2021/03/04 07:24:46;;;;;;;57.53;35.58;;;;;;;10.72;53.98;100290.13;4884022;28;97282;-79
2021/03/04 07:27:15;;;;;;;59.20;36.03;;;;;;;10.86;54.04;100293.13;4850857;28;97049;-79
2021/03/04 07:29:42;;;;;;;53.47;35.08;;;;;;;11.50;52.45;100284.63;4874573;28;99090;-80
2021/03/04 07:32:09;;;;;;;62.38;35.60;;;;;;;13.01;49.02;100276.63;4855012;28;98596;-82
2021/03/04 07:34:35;;;;;;;61.30;37.22;;;;;;;13.35;48.40;100278.63;4871382;28;97202;-79
2021/03/04 07:37:02;;;;;;;60.88;36.10;;;;;;;13.76;47.50;100275.84;4874376;28;97089;-80
2021/03/04 07:39:40;;;;;;;56.65;35.55;;;;;;;14.06;46.99;100272.63;4856112;28;101354;-80
2021/03/04 07:42:21;;;;;;;59.22;36.30;;;;;;;14.34;46.59;100268.59;4857539;28;101602;-79
2021/03/04 07:44:49;;;;;;;55.83;35.05;;;;;;;14.64;45.77;100271.53;4842388;28;97247;-80
2021/03/04 07:47:27;;;;;;;54.92;36.33;;;;;;;14.78;45.40;100273.47;4858140;28;96969;-78
2021/03/04 07:49:53;;;;;;;57.25;34.45;;;;;;;14.92;45.55;100287.66;4873692;28;97551;-79
2021/03/04 07:52:22;;;;;;;55.80;35.60;;;;;;;15.40;44.40;100280.66;4872825;28;97926;-83
2021/03/04 07:54:50;;;;;;;59.50;35.60;;;;;;;15.32;44.76;100282.00;4857602;28;97434;-76
2021/03/04 07:57:28;;;;;;;53.33;35.88;;;;;;;15.12;44.99;100275.16;4855988;28;97303;-74
2021/03/04 07:59:58;;;;;;;57.75;37.03;;;;;;;14.95;45.16;100273.38;4873117;28;97528;-78
2021/03/04 08:02:38;;;;;;;57.03;36.22;;;;;;;14.94;45.31;100271.69;4869847;28;98063;-74
2021/03/04 08:05:30;;;;;;;52.42;36.83;;;;;;;15.36;44.59;100267.69;4855180;28;97263;-76
2021/03/04 08:07:55;;;;;;;55.03;36.15;;;;;;;16.00;43.64;100265.91;4869382;28;97475;-78
2021/03/04 08:10:23;;;;;;;55.08;37.33;;;;;;;16.71;42.42;100249.34;4869553;28;100218;-78
2021/03/04 08:12:50;;;;;;;63.20;38.75;;;;;;;16.82;42.51;100259.34;4858788;28;99116;-83
2021/03/04 08:15:22;;;;;;;57.58;38.97;;;;;;;16.85;41.99;100261.81;4870064;28;97263;-86
2021/03/04 08:17:48;;;;;;;56.03;38.72;;;;;;;16.66;42.23;100257.56;4852269;28;97608;-84
2021/03/04 08:20:16;;;;;;;52.38;37.05;;;;;;;16.63;42.21;100257.75;4873380;28;97948;-85
2021/03/04 08:22:50;;;;;;;52.92;36.50;;;;;;;16.74;42.48;100247.38;4870651;28;98003;-85
2021/03/04 08:25:35;;;;;;;63.45;39.72;;;;;;;16.53;42.49;100246.03;4856538;28;97261;-82
2021/03/04 08:28:03;;;;;;;57.67;37.92;;;;;;;16.46;42.77;100253.50;4873686;28;97218;-80
2021/03/04 08:30:41;;;;;;;67.63;40.20;;;;;;;16.31;43.05;100254.38;4890139;28;101597;-79
2021/03/04 08:33:13;;;;;;;56.78;38.88;;;;;;;16.78;42.42;100242.75;4880184;28;97940;-80
2021/03/04 08:35:45;;;;;;;59.05;41.50;;;;;;;16.81;42.47;100242.56;4885517;28;97165;-80
2021/03/04 08:38:20;;;;;;;55.83;39.67;;;;;;;16.96;41.92;100240.78;4876094;28;96825;-76
2021/03/04 08:40:49;;;;;;;56.85;39.33;;;;;;;17.09;41.62;100240.88;4875490;28;98508;-75
2021/03/04 08:43:19;;;;;;;64.80;39.80;;;;;;;17.47;41.44;100240.25;4856168;28;98129;-75
2021/03/04 08:45:51;;;;;;;60.00;39.20;;;;;;;17.53;41.35;100239.84;4844220;28;97269;-75
2021/03/04 08:48:16;;;;;;;53.97;38.47;;;;;;;17.72;40.94;100234.22;4876726;28;97496;-75
2021/03/04 08:50:45;;;;;;;59.78;39.80;;;;;;;16.77;42.05;100230.44;4865380;28;101179;-78
2021/03/04 08:53:28;;;;;;;71.20;41.85;;;;;;;16.69;42.46;100227.38;4854714;28;100816;-74
2021/03/04 08:55:56;;;;;;;67.70;40.17;;;;;;;16.77;42.01;100222.50;4832826;28;97169;-75
2021/03/04 08:58:26;;;;;;;60.85;39.53;;;;;;;16.28;42.55;100220.97;4837601;28;97053;-76
2021/03/04 09:00:54;;;;;;;61.70;37.63;;;;;;;16.32;43.07;100229.63;4874992;28;102572;-74
2021/03/04 09:03:21;;;;;;;67.70;38.42;;;;;;;16.02;42.88;100227.78;4880202;28;100962;-75
2021/03/04 09:05:47;;;;;;;55.05;37.05;;;;;;;15.72;43.32;100219.84;4870661;28;97043;-75
2021/03/04 09:08:14;;;;;;;52.35;36.75;;;;;;;15.71;43.11;100223.44;4850436;28;97511;-75
2021/03/04 09:10:40;;;;;;;55.13;35.67;;;;;;;15.63;43.86;100237.06;4854524;28;97562;-75
2021/03/04 09:13:06;;;;;;;63.55;37.05;;;;;;;15.33;44.08;100236.09;4856153;28;100946;-76
2021/03/04 09:15:32;;;;;;;53.63;36.75;;;;;;;15.16;44.16;100237.91;4867965;28;97608;-75
2021/03/04 09:17:58;;;;;;;52.95;36.33;;;;;;;15.04;44.38;100225.34;4860148;28;97851;-77
2021/03/04 09:20:30;;;;;;;52.25;35.72;;;;;;;14.66;44.92;100219.44;4851080;28;98111;-74
2021/03/04 09:22:56;;;;;;;55.22;34.70;;;;;;;14.39;44.93;100221.69;4872633;28;98856;-76
2021/03/04 09:25:22;;;;;;;63.80;36.08;;;;;;;14.31;45.52;100223.88;4878663;28;97243;-74
2021/03/04 09:27:47;;;;;;;55.53;35.90;;;;;;;14.36;45.55;100212.16;4858576;28;97472;-74
2021/03/04 09:30:24;;;;;;;54.58;34.72;;;;;;;14.52;45.19;100204.34;4859647;28;101161;-74
2021/03/04 09:32:50;;;;;;;50.92;35.42;;;;;;;14.63;45.47;100207.28;4872958;28;98234;-75
2021/03/04 09:35:15;;;;;;;52.67;33.78;;;;;;;14.64;45.36;100205.47;4879704;28;97414;-75
2021/03/04 09:37:41;;;;;;;56.22;34.40;;;;;;;14.58;45.39;100211.94;4855055;28;97294;-74
2021/03/04 09:40:07;;;;;;;52.80;33.83;;;;;;;14.69;45.13;100219.31;4851040;28;101279;-73
2021/03/04 09:42:38;;;;;;;55.35;35.17;;;;;;;14.76;45.05;100206.63;4891742;28;97470;-77
2021/03/04 09:45:09;;;;;;;59.47;35.28;;;;;;;15.14;44.59;100196.59;4858864;28;97293;-75
2021/03/04 09:47:36;;;;;;;55.63;34.60;;;;;;;15.30;44.30;100199.25;4870491;28;97848;-76
2021/03/04 09:50:15;;;;;;;52.65;34.67;;;;;;;15.31;44.25;100195.69;4847024;28;101570;-74
2021/03/04 09:52:40;;;;;;;54.10;35.05;;;;;;;15.58;44.18;100195.91;4844289;28;101168;-74
2021/03/04 09:55:07;;;;;;;70.30;37.40;;;;;;;15.69;43.88;100179.47;4855577;28;96678;-74
2021/03/04 09:57:34;;;;;;;58.20;37.60;;;;;;;15.54;44.43;100194.41;4855727;28;98139;-77
2021/03/04 10:00:00;;;;;;;70.43;38.72;;;;;;;15.66;43.85;100187.56;4868512;28;100938;-74
2021/03/04 10:02:26;;;;;;;58.72;36.35;;;;;;;15.56;44.26;100192.50;4871791;28;100446;-77
2021/03/04 10:05:00;;;;;;;53.53;36.10;;;;;;;15.49;44.57;100181.41;4856889;28;98295;-76
2021/03/04 10:07:28;;;;;;;79.80;39.33;;;;;;;15.63;44.52;100192.06;4855984;28;97328;-80
2021/03/04 10:09:54;;;;;;;80.13;38.63;;;;;;;15.66;44.59;100179.63;4870748;28;98504;-75
2021/03/04 10:12:20;;;;;;;63.50;38.15;;;;;;;15.77;44.57;100187.84;4849757;28;101661;-75
2021/03/04 10:14:48;;;;;;;57.80;40.22;;;;;;;15.74;44.60;100182.72;4854480;28;97346;-74
2021/03/04 10:17:13;;;;;;;62.13;38.95;;;;;;;15.58;44.82;100177.41;4855390;28;97264;-75
2021/03/04 10:19:40;;;;;;;61.65;40.83;;;;;;;15.23;45.87;100174.94;4853939;28;100401;-74
2021/03/04 10:22:06;;;;;;;59.83;38.65;;;;;;;15.39;45.61;100174.97;4855776;28;101717;-74
2021/03/04 10:24:32;;;;;;;59.63;38.53;;;;;;;15.60;45.43;100170.25;4858146;28;96982;-74
2021/03/04 10:26:59;;;;;;;63.70;39.28;;;;;;;15.26;45.75;100169.47;4859214;28;99627;-75
2021/03/04 10:29:28;;;;;;;53.58;37.83;;;;;;;15.14;45.20;100176.31;4858226;28;101426;-79
2021/03/04 10:31:57;;;;;;;56.20;37.10;;;;;;;15.21;45.10;100173.31;4853356;28;100975;-73
2021/03/04 10:34:23;;;;;;;53.20;36.63;;;;;;;15.33;44.52;100170.88;4844719;28;97272;-74
2021/03/04 10:36:49;;;;;;;56.13;36.78;;;;;;;15.46;44.41;100165.72;4852137;28;97531;-76
2021/03/04 10:39:15;;;;;;;58.28;35.08;;;;;;;15.51;44.17;100168.97;4876633;28;100897;-74
2021/03/04 10:41:45;;;;;;;56.47;36.85;;;;;;;15.30;43.87;100155.19;4852716;28;101320;-76
2021/03/04 10:44:11;;;;;;;54.05;35.50;;;;;;;15.34;43.97;100161.13;4877515;28;96854;-73
2021/03/04 10:46:38;;;;;;;59.97;34.60;;;;;;;15.33;43.50;100156.75;4877518;28;96926;-73
2021/03/04 10:49:04;;;;;;;48.10;32.70;;;;;;;15.29;44.21;100145.50;4861817;28;100794;-76
2021/03/04 10:51:31;;;;;;;51.67;31.92;;;;;;;15.53;43.55;100151.22;4867588;28;97713;-77
2021/03/04 10:53:57;;;;;;;53.85;31.23;;;;;;;15.50;42.54;100146.09;4861003;28;97194;-75
2021/03/04 10:56:23;;;;;;;54.38;31.15;;;;;;;15.45;42.29;100139.38;4857521;28;97417;-73
2021/03/04 10:58:49;;;;;;;48.33;31.08;;;;;;;15.49;42.57;100140.91;4855590;28;101261;-75
2021/03/04 11:01:15;;;;;;;45.22;30.45;;;;;;;15.55;42.67;100146.69;4865772;28;97840;-73
2021/03/04 11:03:41;;;;;;;50.10;29.70;;;;;;;15.30;42.39;100135.78;4856587;28;97345;-73
2021/03/04 11:06:07;;;;;;;43.92;31.60;;;;;;;15.13;42.41;100129.66;4867788;28;96938;-73
2021/03/04 11:08:32;;;;;;;46.80;29.80;;;;;;;15.06;42.84;100135.38;4891667;28;98924;-73
2021/03/04 11:10:58;;;;;;;52.83;31.50;;;;;;;14.92;42.54;100138.78;4875278;28;97766;-74
2021/03/04 11:13:24;;;;;;;42.45;29.02;;;;;;;15.08;43.14;100131.72;4874898;28;97165;-73